createdAt,value
2018-08-30T00:01:40.712Z,16.70
2018-08-30T00:04:08.848Z,16.80
2018-08-30T00:06:37.098Z,16.80
2018-08-30T00:09:06.033Z,16.70
2018-08-30T00:11:34.194Z,16.60
2018-08-30T00:14:02.354Z,16.60
2018-08-30T00:16:31.124Z,16.50
2018-08-30T00:18:59.580Z,16.50
2018-08-30T00:21:27.808Z,16.50
2018-08-30T00:23:55.940Z,16.50
2018-08-30T00:26:24.797Z,16.40
2018-08-30T00:28:52.960Z,16.40
2018-08-30T00:31:21.170Z,16.40
2018-08-30T00:33:50.165Z,16.40
2018-08-30T00:36:18.819Z,16.40
2018-08-30T00:38:47.720Z,16.40
2018-08-30T00:41:16.312Z,16.30
2018-08-30T00:43:44.460Z,16.20
2018-08-30T00:46:12.644Z,16.30
2018-08-30T00:48:40.841Z,16.20
2018-08-30T00:51:08.992Z,16.00
2018-08-30T00:53:37.204Z,15.90
2018-08-30T00:56:06.326Z,15.70
2018-08-30T00:58:34.501Z,15.70
2018-08-30T01:01:03.497Z,15.60
2018-08-30T01:03:31.656Z,15.60
2018-08-30T01:06:00.608Z,15.60
2018-08-30T01:08:29.647Z,15.60
2018-08-30T01:10:58.060Z,15.50
2018-08-30T01:13:26.219Z,15.50
2018-08-30T01:15:54.404Z,15.40
2018-08-30T01:18:22.596Z,15.40
2018-08-30T01:20:51.064Z,15.40
2018-08-30T01:23:19.257Z,15.30
2018-08-30T01:25:48.136Z,15.10
2018-08-30T01:28:16.343Z,15.00
2018-08-30T01:30:44.521Z,14.90
2018-08-30T01:33:12.676Z,14.90
2018-08-30T01:35:40.836Z,14.90
2018-08-30T01:38:08.977Z,14.90
2018-08-30T01:40:37.593Z,14.90
2018-08-30T01:43:05.731Z,14.90
2018-08-30T01:45:33.909Z,14.90
2018-08-30T01:48:02.912Z,14.90
2018-08-30T01:50:31.707Z,14.90
2018-08-30T01:52:59.852Z,14.90
2018-08-30T01:55:28.441Z,14.90
2018-08-30T01:57:57.180Z,14.90
2018-08-30T02:00:25.395Z,14.90
2018-08-30T02:02:53.881Z,14.90
2018-08-30T02:05:22.056Z,14.70
2018-08-30T02:07:50.225Z,14.70
2018-08-30T02:10:18.400Z,14.70
2018-08-30T02:12:46.575Z,14.60
2018-08-30T02:15:14.720Z,14.60
2018-08-30T02:17:42.908Z,14.60
2018-08-30T02:20:11.106Z,14.60
2018-08-30T02:22:39.249Z,14.60
2018-08-30T02:25:07.456Z,14.60
2018-08-30T02:27:35.971Z,14.60
2018-08-30T02:30:04.137Z,14.50
2018-08-30T02:32:32.327Z,14.50
2018-08-30T02:35:00.561Z,14.50
2018-08-30T02:37:28.844Z,14.60
2018-08-30T02:39:56.998Z,14.60
2018-08-30T02:42:25.796Z,14.50
2018-08-30T02:44:53.944Z,14.50
2018-08-30T02:47:22.133Z,14.50
2018-08-30T02:49:51.258Z,14.50
2018-08-30T02:52:19.436Z,14.50
2018-08-30T02:54:47.616Z,14.50
2018-08-30T02:57:16.465Z,14.50
2018-08-30T02:59:44.616Z,14.50
2018-08-30T03:02:12.779Z,14.50
2018-08-30T03:04:41.108Z,14.50
2018-08-30T03:07:09.264Z,14.40
2018-08-30T03:09:37.456Z,14.40
2018-08-30T03:12:05.813Z,14.40
2018-08-30T03:14:34.009Z,14.40
2018-08-30T03:17:02.660Z,14.30
2018-08-30T03:19:30.829Z,14.30
2018-08-30T03:21:59.165Z,14.40
2018-08-30T03:24:27.346Z,14.40
2018-08-30T03:26:55.514Z,14.40
2018-08-30T03:29:23.674Z,14.40
2018-08-30T03:31:52.549Z,14.30
2018-08-30T03:34:20.664Z,14.30
2018-08-30T03:36:48.784Z,14.30
2018-08-30T03:39:16.956Z,14.20
2018-08-30T03:41:45.358Z,14.20
2018-08-30T03:44:13.559Z,14.20
2018-08-30T03:46:41.692Z,14.20
2018-08-30T03:49:09.877Z,14.20
2018-08-30T03:51:38.056Z,14.30
2018-08-30T03:54:06.260Z,14.40
2018-08-30T03:56:34.449Z,14.30
2018-08-30T03:59:02.962Z,14.20
2018-08-30T04:01:31.894Z,14.20
2018-08-30T04:04:00.044Z,14.10
2018-08-30T04:06:28.244Z,14.10
2018-08-30T04:08:56.389Z,14.10
2018-08-30T04:11:24.596Z,14.10
2018-08-30T04:13:52.767Z,14.10
2018-08-30T04:16:20.941Z,14.00
2018-08-30T04:18:54.430Z,14.00
2018-08-30T04:21:22.693Z,14.10
2018-08-30T04:23:50.859Z,14.20
2018-08-30T04:26:19.705Z,14.20
2018-08-30T04:28:47.853Z,14.20
2018-08-30T04:31:16.037Z,14.10
2018-08-30T04:33:44.945Z,14.10
2018-08-30T04:36:13.759Z,14.10
2018-08-30T04:38:41.943Z,13.90
2018-08-30T04:41:10.600Z,14.00
2018-08-30T04:43:39.016Z,14.00
2018-08-30T04:46:07.202Z,14.00
2018-08-30T04:48:35.316Z,13.90
2018-08-30T04:51:03.521Z,14.00
2018-08-30T04:53:31.977Z,14.00
2018-08-30T04:56:00.616Z,14.00
2018-08-30T04:58:28.793Z,14.00
2018-08-30T05:00:57.184Z,14.00
2018-08-30T05:03:25.356Z,13.90
2018-08-30T05:05:54.156Z,14.00
2018-08-30T05:08:23.551Z,14.00
2018-08-30T05:10:51.989Z,13.90
2018-08-30T05:13:20.169Z,14.00
2018-08-30T05:15:48.607Z,13.90
2018-08-30T05:18:17.372Z,13.90
2018-08-30T05:20:45.564Z,14.00
2018-08-30T05:23:13.872Z,14.00
2018-08-30T05:25:42.301Z,13.90
2018-08-30T05:28:10.467Z,13.90
2018-08-30T05:30:39.308Z,14.00
2018-08-30T05:33:07.716Z,14.00
2018-08-30T05:35:35.931Z,14.10
2018-08-30T05:38:04.064Z,14.10
2018-08-30T05:40:32.208Z,14.10
2018-08-30T05:43:00.915Z,14.10
2018-08-30T05:45:30.127Z,14.20
2018-08-30T05:47:58.316Z,14.30
2018-08-30T05:50:26.465Z,14.20
2018-08-30T05:52:54.623Z,14.20
2018-08-30T05:55:23.167Z,14.30
2018-08-30T05:57:51.301Z,14.40
2018-08-30T06:00:19.476Z,14.40
2018-08-30T06:02:47.983Z,14.40
2018-08-30T06:05:16.456Z,14.50
2018-08-30T06:07:44.613Z,14.60
2018-08-30T06:10:12.800Z,14.60
2018-08-30T06:12:40.960Z,14.70
2018-08-30T06:15:09.108Z,14.60
2018-08-30T06:17:37.308Z,14.60
2018-08-30T06:20:06.787Z,14.60
2018-08-30T06:22:34.956Z,14.60
2018-08-30T06:25:04.294Z,14.60
2018-08-30T06:27:32.487Z,14.60
2018-08-30T06:30:00.734Z,14.70
2018-08-30T06:32:29.801Z,14.80
2018-08-30T06:34:58.004Z,14.80
2018-08-30T06:37:26.184Z,14.90
2018-08-30T06:39:54.484Z,14.90
2018-08-30T06:42:23.732Z,14.80
2018-08-30T06:44:52.744Z,14.80
2018-08-30T06:47:20.908Z,14.80
2018-08-30T06:49:49.103Z,15.00
2018-08-30T06:52:17.532Z,15.00
2018-08-30T06:54:45.655Z,15.10
2018-08-30T06:57:13.837Z,15.10
2018-08-30T06:59:42.012Z,15.20
2018-08-30T07:02:10.189Z,15.30
2018-08-30T07:04:38.372Z,15.30
2018-08-30T07:07:06.572Z,15.40
2018-08-30T07:09:36.734Z,15.30
2018-08-30T07:12:05.053Z,15.20
2018-08-30T07:14:33.485Z,15.30
2018-08-30T07:17:01.647Z,15.50
2018-08-30T07:19:29.809Z,15.60
2018-08-30T07:21:58.016Z,15.60
2018-08-30T07:24:26.982Z,15.50
2018-08-30T07:26:55.140Z,15.70
2018-08-30T07:29:23.277Z,15.70
2018-08-30T07:31:52.333Z,15.70
2018-08-30T07:34:21.359Z,15.90
2018-08-30T07:36:49.658Z,15.90
2018-08-30T07:39:17.802Z,15.80
2018-08-30T07:41:45.976Z,15.90
2018-08-30T07:44:14.867Z,15.90
2018-08-30T07:46:42.924Z,15.90
2018-08-30T07:49:11.593Z,16.00
2018-08-30T07:51:39.763Z,16.10
2018-08-30T07:54:08.892Z,16.10
2018-08-30T07:56:37.092Z,16.40
2018-08-30T07:59:05.340Z,16.30
2018-08-30T08:01:33.539Z,16.50
2018-08-30T08:04:01.712Z,17.10
2018-08-30T08:06:29.917Z,17.20
2018-08-30T08:08:58.568Z,17.30
2018-08-30T08:11:26.700Z,17.40
2018-08-30T08:13:54.828Z,17.60
2018-08-30T08:16:23.012Z,17.90
2018-08-30T08:18:51.415Z,18.00
2018-08-30T08:21:19.596Z,18.10
2018-08-30T08:23:47.804Z,18.20
2018-08-30T08:26:15.948Z,18.20
2018-08-30T08:28:44.117Z,18.10
2018-08-30T08:31:12.269Z,18.10
2018-08-30T08:33:40.404Z,18.20
2018-08-30T08:36:09.645Z,18.20
2018-08-30T08:38:37.816Z,18.00
2018-08-30T08:41:06.004Z,18.00
2018-08-30T08:43:34.189Z,18.20
2018-08-30T08:46:02.897Z,18.40
2018-08-30T08:48:31.068Z,18.30
2018-08-30T08:50:59.280Z,18.00
2018-08-30T08:53:27.878Z,17.70
2018-08-30T08:55:56.001Z,17.60
2018-08-30T08:58:24.144Z,17.70
2018-08-30T09:00:53.037Z,17.80
2018-08-30T09:03:21.200Z,17.80
2018-08-30T09:05:49.324Z,17.90
2018-08-30T09:08:17.504Z,18.20
2018-08-30T09:10:45.649Z,18.70
2018-08-30T09:13:14.038Z,18.90
2018-08-30T09:15:42.178Z,18.90
2018-08-30T09:18:10.368Z,18.90
2018-08-30T09:20:38.585Z,19.00
2018-08-30T09:23:06.792Z,19.70
2018-08-30T09:25:34.917Z,21.10
2018-08-30T09:28:03.056Z,22.90
2018-08-30T09:30:31.255Z,24.60
2018-08-30T09:33:00.431Z,25.50
2018-08-30T09:35:29.633Z,25.60
2018-08-30T09:37:57.820Z,25.40
2018-08-30T09:40:26.009Z,24.60
2018-08-30T09:42:54.684Z,24.30
2018-08-30T09:45:22.853Z,23.70
2018-08-30T09:47:51.006Z,23.10
2018-08-30T09:50:19.180Z,22.70
2018-08-30T09:52:47.421Z,22.40
2018-08-30T09:55:15.576Z,22.10
2018-08-30T09:57:43.882Z,21.90
2018-08-30T10:00:13.952Z,21.60
2018-08-30T10:02:47.536Z,21.30
2018-08-30T10:05:15.733Z,21.10
2018-08-30T10:07:43.900Z,20.30
2018-08-30T10:10:12.090Z,19.40
2018-08-30T10:12:40.296Z,18.90
2018-08-30T10:15:08.491Z,18.40
2018-08-30T10:17:36.674Z,18.10
2018-08-30T10:20:04.898Z,18.00
2018-08-30T10:22:33.094Z,18.00
2018-08-30T10:25:01.905Z,18.20
2018-08-30T10:27:30.382Z,18.20
2018-08-30T10:29:58.556Z,18.40
2018-08-30T10:32:26.701Z,18.90
2018-08-30T10:34:54.863Z,19.40
2018-08-30T10:37:23.063Z,19.50
2018-08-30T10:39:51.260Z,19.90
2018-08-30T10:42:19.434Z,20.60
2018-08-30T10:44:48.517Z,20.70
2018-08-30T10:47:16.796Z,21.10
2018-08-30T10:49:45.018Z,21.60
2018-08-30T10:52:13.140Z,21.90
2018-08-30T10:54:41.726Z,22.20
2018-08-30T10:57:10.169Z,22.40
2018-08-30T10:59:38.340Z,22.60
2018-08-30T11:02:07.374Z,23.70
2018-08-30T11:04:35.580Z,23.90
2018-08-30T11:07:03.750Z,24.40
2018-08-30T11:09:31.948Z,24.50
2018-08-30T11:12:00.476Z,24.30
2018-08-30T11:14:28.959Z,24.70
2018-08-30T11:16:57.684Z,25.10
2018-08-30T11:19:25.943Z,25.80
2018-08-30T11:21:54.053Z,26.50
2018-08-30T11:24:22.239Z,26.60
2018-08-30T11:26:50.377Z,26.90
2018-08-30T11:29:18.575Z,27.30
2018-08-30T11:31:46.760Z,27.60
2018-08-30T11:34:14.888Z,28.00
2018-08-30T11:36:43.079Z,28.30
2018-08-30T11:39:11.279Z,27.90
2018-08-30T11:41:39.472Z,27.30
2018-08-30T11:44:07.914Z,27.00
2018-08-30T11:46:36.388Z,26.70
2018-08-30T11:49:04.848Z,27.00
2018-08-30T11:51:33.062Z,27.00
2018-08-30T11:54:01.538Z,26.10
2018-08-30T11:56:29.861Z,25.10
2018-08-30T11:58:58.005Z,24.90
2018-08-30T12:01:26.614Z,25.30
2018-08-30T12:03:56.316Z,25.80
2018-08-30T12:06:24.676Z,26.10
2018-08-30T12:08:52.822Z,26.10
2018-08-30T12:11:21.101Z,25.90
2018-08-30T12:13:49.276Z,25.40
2018-08-30T12:16:17.460Z,24.40
2018-08-30T12:18:45.628Z,23.80
2018-08-30T12:21:13.784Z,23.30
2018-08-30T12:23:42.016Z,22.80
2018-08-30T12:26:10.761Z,22.20
2018-08-30T12:28:39.284Z,22.10
2018-08-30T12:31:07.360Z,22.20
2018-08-30T12:33:35.550Z,22.60
2018-08-30T12:36:03.847Z,22.90
2018-08-30T12:38:32.174Z,23.00
2018-08-30T12:41:00.410Z,23.40
2018-08-30T12:43:29.456Z,23.70
2018-08-30T12:45:57.501Z,23.10
2018-08-30T12:48:26.231Z,22.80
2018-08-30T12:50:54.456Z,23.10
2018-08-30T12:53:23.041Z,23.50
2018-08-30T12:55:51.161Z,23.90
2018-08-30T12:58:19.504Z,24.60
2018-08-30T13:00:47.659Z,24.50
2018-08-30T13:03:15.753Z,24.10
2018-08-30T13:05:44.180Z,24.20
2018-08-30T13:08:12.158Z,24.30
2018-08-30T13:10:40.329Z,24.20
2018-08-30T13:13:08.507Z,24.00
2018-08-30T13:15:36.860Z,23.30
2018-08-30T13:18:04.895Z,22.90
2018-08-30T13:20:33.220Z,22.50
2018-08-30T13:23:01.483Z,22.40
2018-08-30T13:25:30.827Z,22.40
2018-08-30T13:27:59.895Z,22.60
2018-08-30T13:30:28.185Z,22.90
2018-08-30T13:32:56.777Z,23.30
2018-08-30T13:35:24.860Z,23.50
2018-08-30T13:37:53.253Z,24.30
2018-08-30T13:40:21.380Z,25.10
2018-08-30T13:42:49.356Z,25.90
2018-08-30T13:45:17.643Z,26.50
2018-08-30T13:47:45.741Z,26.80
2018-08-30T13:50:13.990Z,26.40
2018-08-30T13:52:42.330Z,26.50
2018-08-30T13:55:10.831Z,26.60
2018-08-30T13:57:39.459Z,26.70
2018-08-30T14:00:07.617Z,26.20
2018-08-30T14:02:36.597Z,26.10
2018-08-30T14:05:05.062Z,25.80
2018-08-30T14:07:33.130Z,25.90
2018-08-30T14:10:01.959Z,25.90
2018-08-30T14:12:30.211Z,25.00
2018-08-30T14:14:59.076Z,24.50
2018-08-30T14:17:26.996Z,24.50
2018-08-30T14:19:55.176Z,24.30
2018-08-30T14:22:23.428Z,24.40
2018-08-30T14:24:51.568Z,24.90
2018-08-30T14:27:19.688Z,25.60
2018-08-30T14:29:47.820Z,26.60
2018-08-30T14:32:15.978Z,27.30
2018-08-30T14:34:44.164Z,27.20
2018-08-30T14:37:12.332Z,27.10
2018-08-30T14:39:40.483Z,27.60
2018-08-30T14:42:09.684Z,27.70
2018-08-30T14:44:37.858Z,28.30
2018-08-30T14:47:06.444Z,28.80
2018-08-30T14:49:34.498Z,28.80
2018-08-30T14:52:02.805Z,28.60
2018-08-30T14:54:33.865Z,27.10
2018-08-30T14:57:02.167Z,26.10
2018-08-30T14:59:30.659Z,25.70
2018-08-30T15:01:58.780Z,25.40
2018-08-30T15:04:26.908Z,25.30
2018-08-30T15:06:55.192Z,25.10
2018-08-30T15:09:23.278Z,25.40
2018-08-30T15:11:51.441Z,26.00
2018-08-30T15:14:19.632Z,25.70
2018-08-30T15:16:47.795Z,26.50
2018-08-30T15:19:15.950Z,26.90
2018-08-30T15:21:44.140Z,26.80
2018-08-30T15:24:13.242Z,27.00
2018-08-30T15:26:41.642Z,27.50
2018-08-30T15:29:10.294Z,27.70
2018-08-30T15:31:38.357Z,27.80
2018-08-30T15:34:06.508Z,27.40
2018-08-30T15:36:34.678Z,27.20
2018-08-30T15:39:04.199Z,27.40
2018-08-30T15:41:33.366Z,27.60
2018-08-30T15:44:01.704Z,27.70
2018-08-30T15:46:29.879Z,27.50
2018-08-30T15:48:58.129Z,26.90
2018-08-30T15:51:26.193Z,27.00
2018-08-30T15:53:54.348Z,26.60
2018-08-30T15:56:22.521Z,26.30
2018-08-30T15:58:50.900Z,25.90
2018-08-30T16:01:19.104Z,25.20
2018-08-30T16:03:47.256Z,24.90
2018-08-30T16:06:15.405Z,24.60
2018-08-30T16:08:43.582Z,24.10
2018-08-30T16:11:12.396Z,23.90
2018-08-30T16:13:40.824Z,23.60
2018-08-30T16:16:09.107Z,23.30
2018-08-30T16:18:38.272Z,23.20
2018-08-30T16:21:06.385Z,22.80
2018-08-30T16:23:35.704Z,22.90
2018-08-30T16:26:03.931Z,22.70
2018-08-30T16:28:33.696Z,22.60
2018-08-30T16:31:02.781Z,22.50
2018-08-30T16:33:30.941Z,22.50
2018-08-30T16:35:59.764Z,22.50
2018-08-30T16:38:27.935Z,22.50
2018-08-30T16:40:56.841Z,22.10
2018-08-30T16:43:25.270Z,21.60
2018-08-30T16:45:53.408Z,21.30
2018-08-30T16:48:21.600Z,21.30
2018-08-30T16:50:50.496Z,21.00
2018-08-30T16:53:18.651Z,20.90
2018-08-30T16:55:47.095Z,20.70
2018-08-30T16:58:15.292Z,20.50
2018-08-30T17:00:43.700Z,20.40
2018-08-30T17:03:11.906Z,20.30
2018-08-30T17:05:40.068Z,20.20
2018-08-30T17:08:08.247Z,20.10
2018-08-30T17:10:36.400Z,19.80
2018-08-30T17:13:04.632Z,19.60
2018-08-30T17:15:33.137Z,19.50
2018-08-30T17:18:01.336Z,19.30
2018-08-30T17:20:35.760Z,19.20
2018-08-30T17:23:04.416Z,19.20
2018-08-30T17:25:32.693Z,19.00
2018-08-30T17:28:00.774Z,19.00
2018-08-30T17:30:29.620Z,18.90
2018-08-30T17:32:58.184Z,18.70
2018-08-30T17:35:27.391Z,18.60
2018-08-30T17:37:55.649Z,18.60
2018-08-30T17:40:24.553Z,18.70
2018-08-30T17:42:52.744Z,18.60
2018-08-30T17:45:22.433Z,18.60
2018-08-30T17:47:50.281Z,18.40
2018-08-30T17:50:18.808Z,18.30
2018-08-30T17:52:47.780Z,18.20
2018-08-30T17:55:15.959Z,18.10
2018-08-30T17:57:44.806Z,18.00
2018-08-30T18:00:14.124Z,18.00
2018-08-30T18:02:44.372Z,17.90
2018-08-30T18:05:13.038Z,17.80
2018-08-30T18:07:41.208Z,17.70
2018-08-30T18:10:09.736Z,17.60
2018-08-30T18:12:38.828Z,17.40
2018-08-30T18:15:08.777Z,17.30
2018-08-30T18:17:37.028Z,17.20
2018-08-30T18:20:05.584Z,17.00
2018-08-30T18:22:33.797Z,16.90
2018-08-30T18:25:01.985Z,16.80
2018-08-30T18:27:30.404Z,16.70
2018-08-30T18:29:58.548Z,16.60
2018-08-30T18:32:27.644Z,16.40
2018-08-30T18:34:55.827Z,16.30
2018-08-30T18:37:23.968Z,16.20
2018-08-30T18:39:52.512Z,16.10
2018-08-30T18:42:20.697Z,16.10
2018-08-30T18:44:48.868Z,16.00
2018-08-30T18:47:17.057Z,16.00
2018-08-30T18:49:46.091Z,16.00
2018-08-30T18:52:14.236Z,15.80
2018-08-30T18:54:42.454Z,15.70
2018-08-30T18:57:10.720Z,15.50
2018-08-30T18:59:38.889Z,15.50
2018-08-30T19:02:07.620Z,15.40
2018-08-30T19:04:35.773Z,15.30
2018-08-30T19:07:03.956Z,15.10
2018-08-30T19:09:32.145Z,15.00
2018-08-30T19:12:00.292Z,14.80
2018-08-30T19:14:28.533Z,14.70
2018-08-30T19:17:02.120Z,14.60
2018-08-30T19:19:30.839Z,14.50
2018-08-30T19:21:59.025Z,14.30
2018-08-30T19:24:32.672Z,14.20
2018-08-30T19:27:00.852Z,14.10
2018-08-30T19:29:29.057Z,14.10
2018-08-30T19:31:57.214Z,14.00
2018-08-30T19:34:25.390Z,14.00
2018-08-30T19:36:53.557Z,14.00
2018-08-30T19:39:21.739Z,13.90
2018-08-30T19:41:49.934Z,13.90
2018-08-30T19:44:18.094Z,13.80
2018-08-30T19:46:46.248Z,13.70
2018-08-30T19:49:14.932Z,13.60
2018-08-30T19:51:43.101Z,13.50
2018-08-30T19:54:11.265Z,13.40
2018-08-30T19:56:39.428Z,13.40
2018-08-30T19:59:07.608Z,13.30
2018-08-30T20:01:35.784Z,13.20
2018-08-30T20:04:04.476Z,13.10
2018-08-30T20:06:32.988Z,13.00
2018-08-30T20:09:01.140Z,12.90
2018-08-30T20:11:29.292Z,12.90
2018-08-30T20:13:57.487Z,12.90
2018-08-30T20:16:25.688Z,12.80
2018-08-30T20:18:53.846Z,12.80
2018-08-30T20:21:22.004Z,12.70
2018-08-30T20:23:50.708Z,12.60
2018-08-30T20:26:19.231Z,12.70
2018-08-30T20:28:47.384Z,12.60
2018-08-30T20:31:15.564Z,12.60
2018-08-30T20:33:43.696Z,12.60
2018-08-30T20:36:11.904Z,12.60
2018-08-30T20:38:40.093Z,12.40
2018-08-30T20:41:08.242Z,12.30
2018-08-30T20:43:37.534Z,12.20
2018-08-30T20:46:05.762Z,12.10
2018-08-30T20:48:33.884Z,12.10
2018-08-30T20:51:02.078Z,12.40
2018-08-30T20:53:30.283Z,12.50
2018-08-30T20:55:58.432Z,12.50
2018-08-30T20:58:26.916Z,12.50
2018-08-30T21:00:55.058Z,12.50
2018-08-30T21:03:23.243Z,12.60
2018-08-30T21:05:52.928Z,12.70
2018-08-30T21:08:21.044Z,12.60
2018-08-30T21:10:49.240Z,12.60
2018-08-30T21:13:18.132Z,12.60
2018-08-30T21:15:46.328Z,12.60
2018-08-30T21:18:14.523Z,12.70
2018-08-30T21:20:42.758Z,12.70
2018-08-30T21:23:11.020Z,12.70
2018-08-30T21:25:39.176Z,12.80
2018-08-30T21:28:07.361Z,12.70
2018-08-30T21:30:35.532Z,12.50
2018-08-30T21:33:04.821Z,12.50
2018-08-30T21:35:32.980Z,12.60
2018-08-30T21:38:01.496Z,12.50
2018-08-30T21:40:29.672Z,12.50
2018-08-30T21:42:57.921Z,12.50
2018-08-30T21:45:26.084Z,12.50
2018-08-30T21:47:54.292Z,12.50
2018-08-30T21:50:22.460Z,12.60
2018-08-30T21:52:50.627Z,12.60
2018-08-30T21:55:18.857Z,12.70
2018-08-30T21:57:47.032Z,12.70
2018-08-30T22:00:15.221Z,12.70
2018-08-30T22:02:44.145Z,12.60
2018-08-30T22:05:12.281Z,12.50
2018-08-30T22:07:41.445Z,12.60
2018-08-30T22:10:10.099Z,12.70
2018-08-30T22:12:38.270Z,12.60
2018-08-30T22:15:06.463Z,12.60
2018-08-30T22:17:35.954Z,12.60
2018-08-30T22:20:04.200Z,12.70
2018-08-30T22:22:32.619Z,12.80
2018-08-30T22:25:00.839Z,12.80
2018-08-30T22:27:29.057Z,12.70
2018-08-30T22:29:57.215Z,12.30
2018-08-30T22:32:26.004Z,12.00
2018-08-30T22:34:54.160Z,11.80
2018-08-30T22:37:22.306Z,11.70
2018-08-30T22:39:50.858Z,11.70
2018-08-30T22:42:18.924Z,11.70
2018-08-30T22:44:49.212Z,11.70
2018-08-30T22:47:17.396Z,11.70
2018-08-30T22:49:45.624Z,11.60
2018-08-30T22:52:13.830Z,11.70
2018-08-30T22:54:42.580Z,11.80
2018-08-30T22:57:10.717Z,12.00
2018-08-30T22:59:39.529Z,12.20
2018-08-30T23:02:07.730Z,12.30
2018-08-30T23:04:35.868Z,12.30
2018-08-30T23:07:04.632Z,12.30
2018-08-30T23:09:32.768Z,12.30
2018-08-30T23:12:01.681Z,12.20
2018-08-30T23:14:29.831Z,12.20
2018-08-30T23:16:58.575Z,12.10
2018-08-30T23:19:26.804Z,12.00
2018-08-30T23:21:54.964Z,12.00
2018-08-30T23:24:23.112Z,12.00
2018-08-30T23:26:51.320Z,11.80
2018-08-30T23:29:19.526Z,11.80
2018-08-30T23:31:47.668Z,11.70
2018-08-30T23:34:15.805Z,11.80
2018-08-30T23:36:43.939Z,11.70
2018-08-30T23:39:12.652Z,11.80
2018-08-30T23:41:41.538Z,11.70
2018-08-30T23:44:10.021Z,11.60
2018-08-30T23:46:38.813Z,11.50
2018-08-30T23:49:06.955Z,11.60
2018-08-30T23:51:35.113Z,11.50
2018-08-30T23:54:03.294Z,11.60
2018-08-30T23:56:31.437Z,11.60
2018-08-30T23:59:10.820Z,11.60
